sensor_id;sensor_type;location;lat;lon;timestamp;temperature;humidity
3232;DHT22;1628;48.884;9.210;2022-10-03T04:02:56;12.90;99.90
3232;DHT22;1628;48.884;9.210;2022-10-03T04:05:32;12.90;99.90
3232;DHT22;1628;48.884;9.210;2022-10-03T04:08:16;12.90;99.90
3232;DHT22;1628;48.884;9.210;2022-10-03T04:10:52;12.90;99.90
3232;DHT22;1628;48.884;9.210;2022-10-03T04:13:35;12.90;99.90
3232;DHT22;1628;48.884;9.210;2022-10-03T04:16:30;12.90;99.90
3232;DHT22;1628;48.884;9.210;2022-10-03T04:19:24;12.90;99.90
3232;DHT22;1628;48.884;9.210;2022-10-03T04:22:12;12.90;99.90
3232;DHT22;1628;48.884;9.210;2022-10-03T04:24:53;12.90;99.90
3232;DHT22;1628;48.884;9.210;2022-10-03T04:27:42;12.90;99.90
3232;DHT22;1628;48.884;9.210;2022-10-03T04:30:13;12.90;99.90
3232;DHT22;1628;48.884;9.210;2022-10-03T04:33:12;12.90;99.90
3232;DHT22;1628;48.884;9.210;2022-10-03T04:36:06;12.80;99.90
3232;DHT22;1628;48.884;9.210;2022-10-03T04:38:44;12.80;99.90
3232;DHT22;1628;48.884;9.210;2022-10-03T04:41:23;12.70;99.90
3232;DHT22;1628;48.884;9.210;2022-10-03T04:44:00;12.70;99.90
3232;DHT22;1628;48.884;9.210;2022-10-03T04:46:33;12.70;99.90
3232;DHT22;1628;48.884;9.210;2022-10-03T04:49:09;12.70;99.90
3232;DHT22;1628;48.884;9.210;2022-10-03T04:51:50;12.70;99.90
3232;DHT22;1628;48.884;9.210;2022-10-03T04:54:26;12.70;99.90
3232;DHT22;1628;48.884;9.210;2022-10-03T04:57:00;12.70;99.90
3232;DHT22;1628;48.884;9.210;2022-10-03T04:59:47;12.70;99.90
3232;DHT22;1628;48.884;9.210;2022-10-03T05:02:37;12.70;99.90
3232;DHT22;1628;48.884;9.210;2022-10-03T05:05:22;12.70;99.90
3232;DHT22;1628;48.884;9.210;2022-10-03T05:07:59;12.70;99.90
3232;DHT22;1628;48.884;9.210;2022-10-03T05:10:43;12.60;99.90
3232;DHT22;1628;48.884;9.210;2022-10-03T05:13:18;12.60;99.90
3232;DHT22;1628;48.884;9.210;2022-10-03T05:15:54;12.70;99.90
3232;DHT22;1628;48.884;9.210;2022-10-03T05:18:33;12.70;99.90
3232;DHT22;1628;48.884;9.210;2022-10-03T05:21:09;12.70;99.90
3232;DHT22;1628;48.884;9.210;2022-10-03T05:23:46;12.70;99.90
3232;DHT22;1628;48.884;9.210;2022-10-03T05:26:22;12.70;99.90
3232;DHT22;1628;48.884;9.210;2022-10-03T05:28:53;12.60;99.90
3232;DHT22;1628;48.884;9.210;2022-10-03T05:31:40;12.60;99.90
3232;DHT22;1628;48.884;9.210;2022-10-03T05:34:15;12.60;99.90
3232;DHT22;1628;48.884;9.210;2022-10-03T05:37:02;12.60;99.90
3232;DHT22;1628;48.884;9.210;2022-10-03T05:39:41;12.60;99.90
3232;DHT22;1628;48.884;9.210;2022-10-03T05:42:22;12.50;99.90
3232;DHT22;1628;48.884;9.210;2022-10-03T05:45:02;12.50;99.90
3232;DHT22;1628;48.884;9.210;2022-10-03T05:47:32;12.50;99.90
3232;DHT22;1628;48.884;9.210;2022-10-03T05:50:32;12.50;99.90
3232;DHT22;1628;48.884;9.210;2022-10-03T05:53:12;12.50;99.90
3232;DHT22;1628;48.884;9.210;2022-10-03T05:55:52;12.50;99.90
3232;DHT22;1628;48.884;9.210;2022-10-03T06:01:59;12.40;99.90
3232;DHT22;1628;48.884;9.210;2022-10-03T06:07:51;12.40;99.90
3232;DHT22;1628;48.884;9.210;2022-10-03T06:10:46;12.40;99.90
3232;DHT22;1628;48.884;9.210;2022-10-03T06:13:20;12.40;99.90
3232;DHT22;1628;48.884;9.210;2022-10-03T06:16:02;12.50;99.90
3232;DHT22;1628;48.884;9.210;2022-10-03T06:21:59;12.50;99.90
3232;DHT22;1628;48.884;9.210;2022-10-03T06:28:19;12.60;99.90
3232;DHT22;1628;48.884;9.210;2022-10-03T06:31:12;12.70;99.90
3232;DHT22;1628;48.884;9.210;2022-10-03T06:34:05;12.70;99.90
3232;DHT22;1628;48.884;9.210;2022-10-03T06:36:47;12.80;99.90
3232;DHT22;1628;48.884;9.210;2022-10-03T06:39:44;12.80;99.90
3232;DHT22;1628;48.884;9.210;2022-10-03T06:42:42;12.80;99.90
3232;DHT22;1628;48.884;9.210;2022-10-03T06:45:48;12.80;99.90
3232;DHT22;1628;48.884;9.210;2022-10-03T06:48:44;12.90;99.90
3232;DHT22;1628;48.884;9.210;2022-10-03T06:51:39;12.90;99.90
3232;DHT22;1628;48.884;9.210;2022-10-03T06:54:35;13.00;99.90
3232;DHT22;1628;48.884;9.210;2022-10-03T06:57:27;13.20;99.90
3232;DHT22;1628;48.884;9.210;2022-10-03T07:00:10;13.40;99.90
3232;DHT22;1628;48.884;9.210;2022-10-03T07:03:10;13.80;99.90
3232;DHT22;1628;48.884;9.210;2022-10-03T07:06:07;14.10;99.90
3232;DHT22;1628;48.884;9.210;2022-10-03T07:08:56;14.30;99.90
3232;DHT22;1628;48.884;9.210;2022-10-03T07:11:39;14.40;99.90
3232;DHT22;1628;48.884;9.210;2022-10-03T07:14:42;14.40;99.90
3232;DHT22;1628;48.884;9.210;2022-10-03T07:17:48;14.40;99.90
3232;DHT22;1628;48.884;9.210;2022-10-03T07:20:43;14.30;99.90
3232;DHT22;1628;48.884;9.210;2022-10-03T07:29:50;14.00;99.90
3232;DHT22;1628;48.884;9.210;2022-10-03T07:32:50;14.20;99.90
3232;DHT22;1628;48.884;9.210;2022-10-03T07:35:41;14.60;99.90
3232;DHT22;1628;48.884;9.210;2022-10-03T07:39:03;14.80;99.90
3232;DHT22;1628;48.884;9.210;2022-10-03T07:41:59;15.10;99.90
3232;DHT22;1628;48.884;9.210;2022-10-03T07:47:59;15.00;99.90
3232;DHT22;1628;48.884;9.210;2022-10-03T07:53:59;14.80;99.90
3232;DHT22;1628;48.884;9.210;2022-10-03T07:56:51;14.60;99.90
3232;DHT22;1628;48.884;9.210;2022-10-03T07:59:46;14.40;99.90
3232;DHT22;1628;48.884;9.210;2022-10-03T08:05:31;14.10;99.90
3232;DHT22;1628;48.884;9.210;2022-10-03T08:11:29;14.00;99.90
3232;DHT22;1628;48.884;9.210;2022-10-03T08:14:05;14.00;99.90
3232;DHT22;1628;48.884;9.210;2022-10-03T08:16:57;14.00;99.90
3232;DHT22;1628;48.884;9.210;2022-10-03T08:19:39;14.00;99.90
3232;DHT22;1628;48.884;9.210;2022-10-03T08:22:14;14.00;99.90
3232;DHT22;1628;48.884;9.210;2022-10-03T08:27:44;13.90;99.90
3232;DHT22;1628;48.884;9.210;2022-10-03T08:30:21;13.90;99.90
3232;DHT22;1628;48.884;9.210;2022-10-03T08:33:14;13.90;99.90
3232;DHT22;1628;48.884;9.210;2022-10-03T08:36:06;14.00;99.90
3232;DHT22;1628;48.884;9.210;2022-10-03T08:38:50;14.00;99.90
3232;DHT22;1628;48.884;9.210;2022-10-03T08:41:41;13.90;99.90
3232;DHT22;1628;48.884;9.210;2022-10-03T08:51:07;14.10;99.90
3232;DHT22;1628;48.884;9.210;2022-10-03T08:54:03;14.20;99.90
3232;DHT22;1628;48.884;9.210;2022-10-03T08:56:47;14.40;99.90
3232;DHT22;1628;48.884;9.210;2022-10-03T09:00:04;14.30;99.90
3232;DHT22;1628;48.884;9.210;2022-10-03T09:08:44;14.50;99.90
3232;DHT22;1628;48.884;9.210;2022-10-03T09:11:44;14.60;99.90
3232;DHT22;1628;48.884;9.210;2022-10-03T09:29:46;14.60;99.90
3232;DHT22;1628;48.884;9.210;2022-10-03T09:32:45;14.80;99.90
3232;DHT22;1628;48.884;9.210;2022-10-03T09:38:47;15.10;99.90
3232;DHT22;1628;48.884;9.210;2022-10-03T09:42:01;15.20;99.90
3232;DHT22;1628;48.884;9.210;2022-10-03T09:44:44;15.20;99.90
3232;DHT22;1628;48.884;9.210;2022-10-03T09:47:46;15.20;99.90
3232;DHT22;1628;48.884;9.210;2022-10-03T09:50:50;15.20;99.90
3232;DHT22;1628;48.884;9.210;2022-10-03T09:57:01;15.30;99.90
3232;DHT22;1628;48.884;9.210;2022-10-03T10:00:10;15.30;99.90
3232;DHT22;1628;48.884;9.210;2022-10-03T10:03:02;15.40;99.90
3232;DHT22;1628;48.884;9.210;2022-10-03T10:15:17;18.50;99.90
3232;DHT22;1628;48.884;9.210;2022-10-03T10:27:26;18.70;99.90
3232;DHT22;1628;48.884;9.210;2022-10-03T10:30:19;18.10;99.90
3232;DHT22;1628;48.884;9.210;2022-10-03T10:33:18;17.70;99.90
3232;DHT22;1628;48.884;9.210;2022-10-03T10:39:26;17.70;99.90
3232;DHT22;1628;48.884;9.210;2022-10-03T10:42:34;17.40;99.90
3232;DHT22;1628;48.884;9.210;2022-10-03T10:45:40;17.10;99.90
3232;DHT22;1628;48.884;9.210;2022-10-03T10:48:59;16.90;99.90
3232;DHT22;1628;48.884;9.210;2022-10-03T10:52:03;16.90;99.90
3232;DHT22;1628;48.884;9.210;2022-10-03T10:58:21;16.80;99.90
3232;DHT22;1628;48.884;9.210;2022-10-03T11:01:22;16.90;99.90
3232;DHT22;1628;48.884;9.210;2022-10-03T11:04:23;17.30;99.90
3232;DHT22;1628;48.884;9.210;2022-10-03T11:10:24;17.60;99.90
3232;DHT22;1628;48.884;9.210;2022-10-03T11:13:27;18.10;99.90
3232;DHT22;1628;48.884;9.210;2022-10-03T11:16:37;18.40;99.90
3232;DHT22;1628;48.884;9.210;2022-10-03T11:23:01;18.60;99.90
3232;DHT22;1628;48.884;9.210;2022-10-03T11:26:04;19.00;99.90
3232;DHT22;1628;48.884;9.210;2022-10-03T11:37:54;19.50;99.90
3232;DHT22;1628;48.884;9.210;2022-10-03T11:40:34;19.30;99.90
3232;DHT22;1628;48.884;9.210;2022-10-03T11:46:35;18.50;99.90
3232;DHT22;1628;48.884;9.210;2022-10-03T11:49:25;18.60;99.90
3232;DHT22;1628;48.884;9.210;2022-10-03T11:52:04;18.50;99.90
3232;DHT22;1628;48.884;9.210;2022-10-03T11:54:36;18.50;99.90
3232;DHT22;1628;48.884;9.210;2022-10-03T11:57:08;18.50;99.90
3232;DHT22;1628;48.884;9.210;2022-10-03T11:59:56;18.40;99.90
3232;DHT22;1628;48.884;9.210;2022-10-03T12:05:27;17.80;99.90
3232;DHT22;1628;48.884;9.210;2022-10-03T12:08:11;17.70;99.90
3232;DHT22;1628;48.884;9.210;2022-10-03T12:11:04;17.70;99.90
3232;DHT22;1628;48.884;9.210;2022-10-03T12:13:43;17.50;99.90
3232;DHT22;1628;48.884;9.210;2022-10-03T12:16:19;17.60;99.90
3232;DHT22;1628;48.884;9.210;2022-10-03T12:18:55;17.40;99.90
3232;DHT22;1628;48.884;9.210;2022-10-03T12:21:32;17.10;99.90
3232;DHT22;1628;48.884;9.210;2022-10-03T12:24:17;16.90;99.90
3232;DHT22;1628;48.884;9.210;2022-10-03T12:26:54;16.90;99.90
3232;DHT22;1628;48.884;9.210;2022-10-03T12:29:25;16.80;99.90
3232;DHT22;1628;48.884;9.210;2022-10-03T12:32:16;16.80;99.90
3232;DHT22;1628;48.884;9.210;2022-10-03T12:34:52;16.70;99.90
3232;DHT22;1628;48.884;9.210;2022-10-03T12:37:33;16.70;99.90
3232;DHT22;1628;48.884;9.210;2022-10-03T12:40:03;16.80;99.90
3232;DHT22;1628;48.884;9.210;2022-10-03T12:42:35;16.70;99.90
3232;DHT22;1628;48.884;9.210;2022-10-03T12:45:11;16.70;99.90
3232;DHT22;1628;48.884;9.210;2022-10-03T12:47:59;16.70;99.90
3232;DHT22;1628;48.884;9.210;2022-10-03T12:50:42;16.80;99.90
3232;DHT22;1628;48.884;9.210;2022-10-03T12:53:32;16.80;99.90
3232;DHT22;1628;48.884;9.210;2022-10-03T12:56:14;17.10;99.90
3232;DHT22;1628;48.884;9.210;2022-10-03T12:58:56;17.20;99.90
3232;DHT22;1628;48.884;9.210;2022-10-03T13:01:44;17.30;99.90
3232;DHT22;1628;48.884;9.210;2022-10-03T13:04:39;17.50;99.90
3232;DHT22;1628;48.884;9.210;2022-10-03T13:07:25;17.70;99.90
3232;DHT22;1628;48.884;9.210;2022-10-03T13:10:09;18.00;99.90
3232;DHT22;1628;48.884;9.210;2022-10-03T13:12:44;18.20;99.90
3232;DHT22;1628;48.884;9.210;2022-10-03T13:18:57;18.50;99.90
3232;DHT22;1628;48.884;9.210;2022-10-03T13:21:41;18.50;99.90
3232;DHT22;1628;48.884;9.210;2022-10-03T13:24:18;18.60;99.90
3232;DHT22;1628;48.884;9.210;2022-10-03T13:26:56;18.80;99.90
3232;DHT22;1628;48.884;9.210;2022-10-03T13:29:27;18.80;99.90
3232;DHT22;1628;48.884;9.210;2022-10-03T13:35:18;18.50;99.90
3232;DHT22;1628;48.884;9.210;2022-10-03T13:38:30;18.30;99.90
3232;DHT22;1628;48.884;9.210;2022-10-03T13:41:13;18.50;99.90
3232;DHT22;1628;48.884;9.210;2022-10-03T13:43:45;18.70;99.90
3232;DHT22;1628;48.884;9.210;2022-10-03T13:46:18;18.90;99.90
3232;DHT22;1628;48.884;9.210;2022-10-03T13:48:53;18.90;99.90
3232;DHT22;1628;48.884;9.210;2022-10-03T13:51:27;19.00;99.90
3232;DHT22;1628;48.884;9.210;2022-10-03T13:53:58;18.90;99.90
3232;DHT22;1628;48.884;9.210;2022-10-03T13:56:39;19.00;99.90
3232;DHT22;1628;48.884;9.210;2022-10-03T13:59:28;19.10;99.90
3232;DHT22;1628;48.884;9.210;2022-10-03T14:02:03;19.00;99.90
3232;DHT22;1628;48.884;9.210;2022-10-03T14:04:48;18.90;99.90
3232;DHT22;1628;48.884;9.210;2022-10-03T14:07:28;18.50;99.90
3232;DHT22;1628;48.884;9.210;2022-10-03T14:10:09;18.50;99.90
3232;DHT22;1628;48.884;9.210;2022-10-03T14:12:53;18.50;99.90
3232;DHT22;1628;48.884;9.210;2022-10-03T14:15:30;18.50;99.90
3232;DHT22;1628;48.884;9.210;2022-10-03T14:18:07;18.60;99.90
3232;DHT22;1628;48.884;9.210;2022-10-03T14:20:41;18.50;99.90
3232;DHT22;1628;48.884;9.210;2022-10-03T14:23:32;18.40;99.90
3232;DHT22;1628;48.884;9.210;2022-10-03T14:26:06;18.50;99.90
3232;DHT22;1628;48.884;9.210;2022-10-03T14:28:39;18.60;99.90
3232;DHT22;1628;48.884;9.210;2022-10-03T14:31:17;18.60;99.90
3232;DHT22;1628;48.884;9.210;2022-10-03T14:33:55;18.70;99.90
3232;DHT22;1628;48.884;9.210;2022-10-03T14:36:34;18.70;99.90
3232;DHT22;1628;48.884;9.210;2022-10-03T14:39:24;18.60;99.90
3232;DHT22;1628;48.884;9.210;2022-10-03T14:44:54;18.90;99.90
3232;DHT22;1628;48.884;9.210;2022-10-03T14:47:23;18.90;99.90
3232;DHT22;1628;48.884;9.210;2022-10-03T14:49:53;19.10;99.90
3232;DHT22;1628;48.884;9.210;2022-10-03T14:52:26;19.30;99.90
3232;DHT22;1628;48.884;9.210;2022-10-03T14:54:56;19.20;99.90
3232;DHT22;1628;48.884;9.210;2022-10-03T14:57:30;19.40;99.90
3232;DHT22;1628;48.884;9.210;2022-10-03T14:59:58;19.50;99.90
3232;DHT22;1628;48.884;9.210;2022-10-03T15:02:29;19.60;99.90
3232;DHT22;1628;48.884;9.210;2022-10-03T15:05:02;19.50;99.90
3232;DHT22;1628;48.884;9.210;2022-10-03T15:07:35;19.50;99.90
3232;DHT22;1628;48.884;9.210;2022-10-03T15:10:06;19.40;99.90
3232;DHT22;1628;48.884;9.210;2022-10-03T15:12:35;19.40;99.90
3232;DHT22;1628;48.884;9.210;2022-10-03T15:15:07;19.40;99.90
3232;DHT22;1628;48.884;9.210;2022-10-03T15:17:43;19.30;99.90
3232;DHT22;1628;48.884;9.210;2022-10-03T15:20:11;19.30;99.90
3232;DHT22;1628;48.884;9.210;2022-10-03T15:22:39;19.10;99.90
3232;DHT22;1628;48.884;9.210;2022-10-03T15:25:11;19.10;99.90
3232;DHT22;1628;48.884;9.210;2022-10-03T15:27:40;18.90;99.90
3232;DHT22;1628;48.884;9.210;2022-10-03T15:30:19;18.70;99.90
3232;DHT22;1628;48.884;9.210;2022-10-03T15:32:48;18.50;99.90
3232;DHT22;1628;48.884;9.210;2022-10-03T15:35:18;18.20;99.90
3232;DHT22;1628;48.884;9.210;2022-10-03T15:37:46;18.10;99.90
3232;DHT22;1628;48.884;9.210;2022-10-03T15:40:20;18.10;99.90
3232;DHT22;1628;48.884;9.210;2022-10-03T15:43:00;18.10;99.90
3232;DHT22;1628;48.884;9.210;2022-10-03T15:45:30;18.00;99.90
3232;DHT22;1628;48.884;9.210;2022-10-03T15:48:00;18.00;99.90
3232;DHT22;1628;48.884;9.210;2022-10-03T15:50:31;17.80;99.90
3232;DHT22;1628;48.884;9.210;2022-10-03T15:53:02;17.70;99.90
3232;DHT22;1628;48.884;9.210;2022-10-03T15:55:35;17.70;99.90
3232;DHT22;1628;48.884;9.210;2022-10-03T15:58:13;17.70;99.90
3232;DHT22;1628;48.884;9.210;2022-10-03T16:00:51;17.50;99.90
3232;DHT22;1628;48.884;9.210;2022-10-03T16:03:26;17.40;99.90
3232;DHT22;1628;48.884;9.210;2022-10-03T16:06:00;17.30;99.90
3232;DHT22;1628;48.884;9.210;2022-10-03T16:08:31;17.20;99.90
3232;DHT22;1628;48.884;9.210;2022-10-03T16:11:04;17.10;99.90
3232;DHT22;1628;48.884;9.210;2022-10-03T16:13:35;17.10;99.90
3232;DHT22;1628;48.884;9.210;2022-10-03T16:16:12;17.00;99.90
3232;DHT22;1628;48.884;9.210;2022-10-03T16:18:58;17.00;99.90
3232;DHT22;1628;48.884;9.210;2022-10-03T16:21:40;16.90;99.90
3232;DHT22;1628;48.884;9.210;2022-10-03T16:24:19;16.80;99.90
3232;DHT22;1628;48.884;9.210;2022-10-03T16:26:51;16.70;99.90
3232;DHT22;1628;48.884;9.210;2022-10-03T16:29:21;16.60;99.90
3232;DHT22;1628;48.884;9.210;2022-10-03T16:31:53;16.50;99.90
3232;DHT22;1628;48.884;9.210;2022-10-03T16:34:24;16.50;99.90
3232;DHT22;1628;48.884;9.210;2022-10-03T16:36:52;16.40;99.90
3232;DHT22;1628;48.884;9.210;2022-10-03T16:39:22;16.30;99.90
3232;DHT22;1628;48.884;9.210;2022-10-03T16:41:51;16.20;99.90
3232;DHT22;1628;48.884;9.210;2022-10-03T16:44:23;16.10;99.90
3232;DHT22;1628;48.884;9.210;2022-10-03T16:46:52;16.00;99.90
3232;DHT22;1628;48.884;9.210;2022-10-03T16:49:33;16.00;99.90
3232;DHT22;1628;48.884;9.210;2022-10-03T16:52:22;15.80;99.90
3232;DHT22;1628;48.884;9.210;2022-10-03T16:54:57;15.70;99.90
3232;DHT22;1628;48.884;9.210;2022-10-03T16:57:31;15.60;99.90
3232;DHT22;1628;48.884;9.210;2022-10-03T17:00:03;15.50;99.90
3232;DHT22;1628;48.884;9.210;2022-10-03T17:02:32;15.30;99.90
3232;DHT22;1628;48.884;9.210;2022-10-03T17:05:06;15.20;99.90
3232;DHT22;1628;48.884;9.210;2022-10-03T17:07:37;15.00;99.90
3232;DHT22;1628;48.884;9.210;2022-10-03T17:10:20;14.90;99.90
3232;DHT22;1628;48.884;9.210;2022-10-03T17:12:49;14.80;99.90
3232;DHT22;1628;48.884;9.210;2022-10-03T17:15:20;14.60;99.90
3232;DHT22;1628;48.884;9.210;2022-10-03T17:17:50;14.50;99.90
3232;DHT22;1628;48.884;9.210;2022-10-03T17:20:32;14.30;99.90
3232;DHT22;1628;48.884;9.210;2022-10-03T17:23:02;14.30;99.90
3232;DHT22;1628;48.884;9.210;2022-10-03T17:25:36;14.20;99.90
3232;DHT22;1628;48.884;9.210;2022-10-03T17:28:13;14.10;99.90
3232;DHT22;1628;48.884;9.210;2022-10-03T17:30:44;14.00;99.90
3232;DHT22;1628;48.884;9.210;2022-10-03T17:33:17;14.00;99.90
3232;DHT22;1628;48.884;9.210;2022-10-03T17:35:56;13.90;99.90
3232;DHT22;1628;48.884;9.210;2022-10-03T17:38:29;13.80;99.90
3232;DHT22;1628;48.884;9.210;2022-10-03T17:41:12;13.70;99.90
3232;DHT22;1628;48.884;9.210;2022-10-03T17:43:44;13.70;99.90
3232;DHT22;1628;48.884;9.210;2022-10-03T17:46:17;13.60;99.90
3232;DHT22;1628;48.884;9.210;2022-10-03T17:48:53;13.50;99.90
3232;DHT22;1628;48.884;9.210;2022-10-03T17:51:31;13.50;99.90
3232;DHT22;1628;48.884;9.210;2022-10-03T17:54:02;13.40;99.90
3232;DHT22;1628;48.884;9.210;2022-10-03T17:56:32;13.30;99.90
3232;DHT22;1628;48.884;9.210;2022-10-03T17:59:03;13.20;99.90
3232;DHT22;1628;48.884;9.210;2022-10-03T18:01:35;13.20;99.90
3232;DHT22;1628;48.884;9.210;2022-10-03T18:04:06;13.10;99.90
3232;DHT22;1628;48.884;9.210;2022-10-03T18:06:45;13.10;99.90
3232;DHT22;1628;48.884;9.210;2022-10-03T18:09:26;13.00;99.90
3232;DHT22;1628;48.884;9.210;2022-10-03T18:12:01;13.00;99.90
3232;DHT22;1628;48.884;9.210;2022-10-03T18:14:35;12.90;99.90
3232;DHT22;1628;48.884;9.210;2022-10-03T18:17:09;12.90;99.90
3232;DHT22;1628;48.884;9.210;2022-10-03T18:19:53;12.90;99.90
3232;DHT22;1628;48.884;9.210;2022-10-03T18:22:26;12.90;99.90
3232;DHT22;1628;48.884;9.210;2022-10-03T18:24:55;12.80;99.90
3232;DHT22;1628;48.884;9.210;2022-10-03T18:27:40;12.80;99.90
3232;DHT22;1628;48.884;9.210;2022-10-03T18:30:14;12.80;99.90
3232;DHT22;1628;48.884;9.210;2022-10-03T18:32:43;12.80;99.90
3232;DHT22;1628;48.884;9.210;2022-10-03T18:35:14;12.80;99.90
3232;DHT22;1628;48.884;9.210;2022-10-03T18:38:02;12.70;99.90
3232;DHT22;1628;48.884;9.210;2022-10-03T18:40:33;12.80;99.90
3232;DHT22;1628;48.884;9.210;2022-10-03T18:43:00;12.70;99.90
3232;DHT22;1628;48.884;9.210;2022-10-03T18:45:31;12.80;99.90
3232;DHT22;1628;48.884;9.210;2022-10-03T18:48:05;12.80;99.90
3232;DHT22;1628;48.884;9.210;2022-10-03T18:50:46;12.80;99.90
3232;DHT22;1628;48.884;9.210;2022-10-03T18:53:20;12.70;99.90
3232;DHT22;1628;48.884;9.210;2022-10-03T18:55:55;12.70;99.90
3232;DHT22;1628;48.884;9.210;2022-10-03T18:58:25;12.70;99.90
3232;DHT22;1628;48.884;9.210;2022-10-03T19:00:58;12.60;99.90
3232;DHT22;1628;48.884;9.210;2022-10-03T19:03:32;12.50;99.90
3232;DHT22;1628;48.884;9.210;2022-10-03T19:06:03;12.50;99.90
3232;DHT22;1628;48.884;9.210;2022-10-03T19:08:35;12.60;99.90
3232;DHT22;1628;48.884;9.210;2022-10-03T19:11:10;12.50;99.90
3232;DHT22;1628;48.884;9.210;2022-10-03T19:13:43;12.50;99.90
3232;DHT22;1628;48.884;9.210;2022-10-03T19:16:26;12.50;99.90
3232;DHT22;1628;48.884;9.210;2022-10-03T19:19:03;12.50;99.90
3232;DHT22;1628;48.884;9.210;2022-10-03T19:21:34;12.50;99.90
3232;DHT22;1628;48.884;9.210;2022-10-03T19:24:05;12.40;99.90
3232;DHT22;1628;48.884;9.210;2022-10-03T19:26:38;12.40;99.90
3232;DHT22;1628;48.884;9.210;2022-10-03T19:29:11;12.40;99.90
3232;DHT22;1628;48.884;9.210;2022-10-03T19:31:40;12.40;99.90
3232;DHT22;1628;48.884;9.210;2022-10-03T19:34:13;12.40;99.90
3232;DHT22;1628;48.884;9.210;2022-10-03T19:36:44;12.40;99.90
3232;DHT22;1628;48.884;9.210;2022-10-03T19:39:16;12.30;99.90
3232;DHT22;1628;48.884;9.210;2022-10-03T19:41:49;12.30;99.90
3232;DHT22;1628;48.884;9.210;2022-10-03T19:44:19;12.30;99.90
3232;DHT22;1628;48.884;9.210;2022-10-03T19:46:56;12.20;99.90
3232;DHT22;1628;48.884;9.210;2022-10-03T19:49:29;12.20;99.90
3232;DHT22;1628;48.884;9.210;2022-10-03T19:52:14;12.10;99.90
3232;DHT22;1628;48.884;9.210;2022-10-03T19:54:47;12.00;99.90
3232;DHT22;1628;48.884;9.210;2022-10-03T19:57:17;11.90;99.90
3232;DHT22;1628;48.884;9.210;2022-10-03T19:59:47;11.90;99.90
3232;DHT22;1628;48.884;9.210;2022-10-03T20:02:20;11.80;99.90
3232;DHT22;1628;48.884;9.210;2022-10-03T20:04:48;11.80;99.90
3232;DHT22;1628;48.884;9.210;2022-10-03T20:07:16;11.70;99.90
3232;DHT22;1628;48.884;9.210;2022-10-03T20:09:56;11.60;99.90
3232;DHT22;1628;48.884;9.210;2022-10-03T20:12:25;11.60;99.90
3232;DHT22;1628;48.884;9.210;2022-10-03T20:14:52;11.50;99.90
3232;DHT22;1628;48.884;9.210;2022-10-03T20:17:20;11.50;99.90
3232;DHT22;1628;48.884;9.210;2022-10-03T20:19:50;11.50;99.90
3232;DHT22;1628;48.884;9.210;2022-10-03T20:22:21;11.40;99.90
3232;DHT22;1628;48.884;9.210;2022-10-03T20:24:49;11.40;99.90
3232;DHT22;1628;48.884;9.210;2022-10-03T20:27:31;11.40;99.90
3232;DHT22;1628;48.884;9.210;2022-10-03T20:30:23;11.30;99.90
3232;DHT22;1628;48.884;9.210;2022-10-03T20:32:52;11.30;99.90
3232;DHT22;1628;48.884;9.210;2022-10-03T20:35:22;11.30;99.90
3232;DHT22;1628;48.884;9.210;2022-10-03T20:37:53;11.20;99.90
3232;DHT22;1628;48.884;9.210;2022-10-03T20:40:27;11.30;99.90
3232;DHT22;1628;48.884;9.210;2022-10-03T20:43:10;11.20;99.90
3232;DHT22;1628;48.884;9.210;2022-10-03T20:45:46;11.20;99.90
3232;DHT22;1628;48.884;9.210;2022-10-03T20:48:21;11.20;99.90
3232;DHT22;1628;48.884;9.210;2022-10-03T20:50:50;11.20;99.90
3232;DHT22;1628;48.884;9.210;2022-10-03T20:53:19;11.10;99.90
3232;DHT22;1628;48.884;9.210;2022-10-03T20:55:49;11.10;99.90
3232;DHT22;1628;48.884;9.210;2022-10-03T20:58:23;11.10;99.90
3232;DHT22;1628;48.884;9.210;2022-10-03T21:00:58;11.00;99.90
3232;DHT22;1628;48.884;9.210;2022-10-03T21:03:28;11.00;99.90
3232;DHT22;1628;48.884;9.210;2022-10-03T21:05:58;10.90;99.90
3232;DHT22;1628;48.884;9.210;2022-10-03T21:08:28;10.90;99.90
3232;DHT22;1628;48.884;9.210;2022-10-03T21:10:56;10.90;99.90
3232;DHT22;1628;48.884;9.210;2022-10-03T21:13:30;10.80;99.90
3232;DHT22;1628;48.884;9.210;2022-10-03T21:15:59;10.80;99.90
3232;DHT22;1628;48.884;9.210;2022-10-03T21:18:30;10.80;99.90
3232;DHT22;1628;48.884;9.210;2022-10-03T21:21:05;10.80;99.90
3232;DHT22;1628;48.884;9.210;2022-10-03T21:23:37;10.70;99.90
3232;DHT22;1628;48.884;9.210;2022-10-03T21:26:07;10.70;99.90
3232;DHT22;1628;48.884;9.210;2022-10-03T21:28:36;10.70;99.90
3232;DHT22;1628;48.884;9.210;2022-10-03T21:31:21;10.70;99.90
3232;DHT22;1628;48.884;9.210;2022-10-03T21:33:56;10.70;99.90
3232;DHT22;1628;48.884;9.210;2022-10-03T21:36:27;10.70;99.90
3232;DHT22;1628;48.884;9.210;2022-10-03T21:39:03;10.70;99.90
3232;DHT22;1628;48.884;9.210;2022-10-03T21:41:39;10.70;99.90
3232;DHT22;1628;48.884;9.210;2022-10-03T21:44:25;10.70;99.90
3232;DHT22;1628;48.884;9.210;2022-10-03T21:46:58;10.60;99.90
3232;DHT22;1628;48.884;9.210;2022-10-03T21:49:39;10.60;99.90
3232;DHT22;1628;48.884;9.210;2022-10-03T21:52:34;10.60;99.90
3232;DHT22;1628;48.884;9.210;2022-10-03T21:55:19;10.60;99.90
3232;DHT22;1628;48.884;9.210;2022-10-03T21:57:59;10.60;99.90
